sensor_id;sensor_type;location;lat;lon;timestamp;temperature;humidity
39483;DHT22;25682;48.438;1.482;2023-05-07T06:33:42;21.00;63.80
39483;DHT22;25682;48.438;1.482;2023-05-07T06:36:08;21.30;69.50
39483;DHT22;25682;48.438;1.482;2023-05-07T06:38:33;21.40;68.60
39483;DHT22;25682;48.438;1.482;2023-05-07T06:40:59;21.40;68.30
39483;DHT22;25682;48.438;1.482;2023-05-07T06:43:25;21.50;68.10
39483;DHT22;25682;48.438;1.482;2023-05-07T06:45:50;21.60;68.00
39483;DHT22;25682;48.438;1.482;2023-05-07T06:48:15;21.60;67.60
39483;DHT22;25682;48.438;1.482;2023-05-07T06:50:41;21.70;67.40
39483;DHT22;25682;48.438;1.482;2023-05-07T06:53:07;21.70;67.20
39483;DHT22;25682;48.438;1.482;2023-05-07T06:55:32;21.70;67.00
39483;DHT22;25682;48.438;1.482;2023-05-07T06:57:58;21.80;66.80
39483;DHT22;25682;48.438;1.482;2023-05-07T07:00:26;21.80;66.70
39483;DHT22;25682;48.438;1.482;2023-05-07T07:02:52;21.80;66.60
39483;DHT22;25682;48.438;1.482;2023-05-07T07:05:17;21.80;66.40
39483;DHT22;25682;48.438;1.482;2023-05-07T07:07:43;21.80;66.20
39483;DHT22;25682;48.438;1.482;2023-05-07T07:10:09;21.80;66.00
39483;DHT22;25682;48.438;1.482;2023-05-07T07:12:34;21.90;65.80
39483;DHT22;25682;48.438;1.482;2023-05-07T07:15:00;21.90;65.60
39483;DHT22;25682;48.438;1.482;2023-05-07T07:17:25;22.00;65.60
39483;DHT22;25682;48.438;1.482;2023-05-07T07:19:51;22.00;65.50
39483;DHT22;25682;48.438;1.482;2023-05-07T07:22:16;22.00;65.30
39483;DHT22;25682;48.438;1.482;2023-05-07T07:24:42;22.00;65.20
39483;DHT22;25682;48.438;1.482;2023-05-07T07:27:07;22.00;65.20
39483;DHT22;25682;48.438;1.482;2023-05-07T07:29:33;22.00;65.00
39483;DHT22;25682;48.438;1.482;2023-05-07T07:31:58;22.10;65.00
39483;DHT22;25682;48.438;1.482;2023-05-07T07:34:24;22.10;64.90
39483;DHT22;25682;48.438;1.482;2023-05-07T07:36:49;22.10;64.80
39483;DHT22;25682;48.438;1.482;2023-05-07T07:39:14;22.10;64.70
39483;DHT22;25682;48.438;1.482;2023-05-07T07:41:40;22.20;64.70
39483;DHT22;25682;48.438;1.482;2023-05-07T07:44:06;22.20;64.60
39483;DHT22;25682;48.438;1.482;2023-05-07T07:46:32;22.20;64.50
39483;DHT22;25682;48.438;1.482;2023-05-07T07:48:58;22.20;64.40
39483;DHT22;25682;48.438;1.482;2023-05-07T07:51:25;22.20;64.30
39483;DHT22;25682;48.438;1.482;2023-05-07T07:53:50;22.20;64.20
39483;DHT22;25682;48.438;1.482;2023-05-07T07:56:16;22.20;64.20
39483;DHT22;25682;48.438;1.482;2023-05-07T07:58:41;22.20;64.10
39483;DHT22;25682;48.438;1.482;2023-05-07T08:01:07;22.30;64.00
39483;DHT22;25682;48.438;1.482;2023-05-07T08:03:32;22.30;64.00
39483;DHT22;25682;48.438;1.482;2023-05-07T08:05:58;22.30;63.80
39483;DHT22;25682;48.438;1.482;2023-05-07T08:08:23;22.30;63.70
39483;DHT22;25682;48.438;1.482;2023-05-07T08:10:49;22.30;63.60
39483;DHT22;25682;48.438;1.482;2023-05-07T08:13:15;22.30;63.60
39483;DHT22;25682;48.438;1.482;2023-05-07T08:15:41;22.30;63.50
39483;DHT22;25682;48.438;1.482;2023-05-07T08:18:06;22.30;63.40
39483;DHT22;25682;48.438;1.482;2023-05-07T08:20:32;22.40;63.30
39483;DHT22;25682;48.438;1.482;2023-05-07T08:22:58;22.40;63.30
39483;DHT22;25682;48.438;1.482;2023-05-07T08:25:24;22.40;63.10
39483;DHT22;25682;48.438;1.482;2023-05-07T08:27:49;22.40;63.00
39483;DHT22;25682;48.438;1.482;2023-05-07T08:30:15;22.50;63.00
39483;DHT22;25682;48.438;1.482;2023-05-07T08:32:40;22.50;62.90
39483;DHT22;25682;48.438;1.482;2023-05-07T08:35:06;22.50;63.40
39483;DHT22;25682;48.438;1.482;2023-05-07T08:37:32;22.50;62.70
39483;DHT22;25682;48.438;1.482;2023-05-07T08:39:57;22.60;62.60
39483;DHT22;25682;48.438;1.482;2023-05-07T08:42:23;22.60;62.50
39483;DHT22;25682;48.438;1.482;2023-05-07T08:44:49;22.60;62.50
39483;DHT22;25682;48.438;1.482;2023-05-07T08:47:18;22.60;62.50
39483;DHT22;25682;48.438;1.482;2023-05-07T08:49:43;22.70;62.40
39483;DHT22;25682;48.438;1.482;2023-05-07T08:52:09;22.60;62.40
39483;DHT22;25682;48.438;1.482;2023-05-07T08:54:36;22.70;62.50
39483;DHT22;25682;48.438;1.482;2023-05-07T08:57:02;22.60;62.40
39483;DHT22;25682;48.438;1.482;2023-05-07T08:59:28;22.70;63.00
39483;DHT22;25682;48.438;1.482;2023-05-07T09:01:53;22.70;62.40
39483;DHT22;25682;48.438;1.482;2023-05-07T09:04:19;22.70;62.30
39483;DHT22;25682;48.438;1.482;2023-05-07T09:06:44;22.70;62.40
39483;DHT22;25682;48.438;1.482;2023-05-07T09:09:10;22.70;62.30
39483;DHT22;25682;48.438;1.482;2023-05-07T09:11:39;22.70;62.40
39483;DHT22;25682;48.438;1.482;2023-05-07T09:14:04;22.80;62.40
39483;DHT22;25682;48.438;1.482;2023-05-07T09:16:30;22.70;62.30
39483;DHT22;25682;48.438;1.482;2023-05-07T09:18:57;22.70;62.30
39483;DHT22;25682;48.438;1.482;2023-05-07T09:21:22;22.80;62.30
39483;DHT22;25682;48.438;1.482;2023-05-07T09:23:50;22.80;62.40
39483;DHT22;25682;48.438;1.482;2023-05-07T09:26:15;22.80;62.40
39483;DHT22;25682;48.438;1.482;2023-05-07T09:28:41;22.80;62.30
39483;DHT22;25682;48.438;1.482;2023-05-07T09:31:07;22.80;62.30
39483;DHT22;25682;48.438;1.482;2023-05-07T09:33:33;22.80;62.30
39483;DHT22;25682;48.438;1.482;2023-05-07T09:36:01;22.80;62.30
39483;DHT22;25682;48.438;1.482;2023-05-07T09:38:27;22.80;62.20
39483;DHT22;25682;48.438;1.482;2023-05-07T09:43:31;22.80;62.20
39483;DHT22;25682;48.438;1.482;2023-05-07T09:45:57;22.80;62.20
39483;DHT22;25682;48.438;1.482;2023-05-07T09:48:23;22.80;62.10
39483;DHT22;25682;48.438;1.482;2023-05-07T09:50:51;22.80;62.00
39483;DHT22;25682;48.438;1.482;2023-05-07T09:53:17;22.90;62.00
39483;DHT22;25682;48.438;1.482;2023-05-07T09:55:43;22.90;62.00
39483;DHT22;25682;48.438;1.482;2023-05-07T09:58:08;22.90;62.00
39483;DHT22;25682;48.438;1.482;2023-05-07T10:00:34;22.90;62.00
39483;DHT22;25682;48.438;1.482;2023-05-07T10:03:00;22.90;61.90
39483;DHT22;25682;48.438;1.482;2023-05-07T10:05:26;22.90;61.90
39483;DHT22;25682;48.438;1.482;2023-05-07T10:07:52;22.90;61.90
39483;DHT22;25682;48.438;1.482;2023-05-07T10:10:18;22.90;61.90
39483;DHT22;25682;48.438;1.482;2023-05-07T10:12:43;22.90;61.90
39483;DHT22;25682;48.438;1.482;2023-05-07T10:15:10;22.90;61.90
39483;DHT22;25682;48.438;1.482;2023-05-07T10:17:37;22.90;61.90
39483;DHT22;25682;48.438;1.482;2023-05-07T10:20:03;22.90;62.00
39483;DHT22;25682;48.438;1.482;2023-05-07T10:22:31;22.90;62.00
39483;DHT22;25682;48.438;1.482;2023-05-07T10:24:58;22.90;62.00
39483;DHT22;25682;48.438;1.482;2023-05-07T10:27:24;22.90;62.10
39483;DHT22;25682;48.438;1.482;2023-05-07T10:32:39;22.90;62.10
39483;DHT22;25682;48.438;1.482;2023-05-07T10:35:06;22.90;62.10
39483;DHT22;25682;48.438;1.482;2023-05-07T10:37:34;22.90;62.10
39483;DHT22;25682;48.438;1.482;2023-05-07T10:40:00;22.90;62.10
39483;DHT22;25682;48.438;1.482;2023-05-07T10:42:26;22.90;62.10
39483;DHT22;25682;48.438;1.482;2023-05-07T10:44:51;22.90;62.10
39483;DHT22;25682;48.438;1.482;2023-05-07T10:47:17;22.90;62.10
39483;DHT22;25682;48.438;1.482;2023-05-07T10:52:19;22.90;62.00
39483;DHT22;25682;48.438;1.482;2023-05-07T10:54:45;22.90;62.10
39483;DHT22;25682;48.438;1.482;2023-05-07T10:59:55;22.90;62.00
39483;DHT22;25682;48.438;1.482;2023-05-07T11:02:20;22.90;62.00
39483;DHT22;25682;48.438;1.482;2023-05-07T11:04:50;22.90;62.00
39483;DHT22;25682;48.438;1.482;2023-05-07T11:07:31;23.00;62.00
39483;DHT22;25682;48.438;1.482;2023-05-07T11:09:58;22.90;61.90
39483;DHT22;25682;48.438;1.482;2023-05-07T11:15:04;22.90;62.00
39483;DHT22;25682;48.438;1.482;2023-05-07T11:17:29;23.00;62.00
39483;DHT22;25682;48.438;1.482;2023-05-07T11:19:57;23.00;62.00
39483;DHT22;25682;48.438;1.482;2023-05-07T11:25:04;23.00;61.80
39483;DHT22;25682;48.438;1.482;2023-05-07T11:27:31;23.00;61.70
39483;DHT22;25682;48.438;1.482;2023-05-07T11:29:57;23.00;61.80
39483;DHT22;25682;48.438;1.482;2023-05-07T11:32:29;23.00;61.80
39483;DHT22;25682;48.438;1.482;2023-05-07T11:34:55;23.00;61.80
39483;DHT22;25682;48.438;1.482;2023-05-07T11:37:21;23.00;62.00
39483;DHT22;25682;48.438;1.482;2023-05-07T11:39:47;22.90;62.00
39483;DHT22;25682;48.438;1.482;2023-05-07T11:42:28;22.90;62.00
39483;DHT22;25682;48.438;1.482;2023-05-07T11:44:54;22.90;62.00
39483;DHT22;25682;48.438;1.482;2023-05-07T11:47:20;22.90;62.00
39483;DHT22;25682;48.438;1.482;2023-05-07T11:49:49;22.90;62.00
39483;DHT22;25682;48.438;1.482;2023-05-07T11:52:15;22.90;62.10
39483;DHT22;25682;48.438;1.482;2023-05-07T11:54:43;22.90;62.60
39483;DHT22;25682;48.438;1.482;2023-05-07T11:57:16;22.90;62.10
39483;DHT22;25682;48.438;1.482;2023-05-07T11:59:42;23.00;62.10
39483;DHT22;25682;48.438;1.482;2023-05-07T12:02:09;23.00;62.10
39483;DHT22;25682;48.438;1.482;2023-05-07T12:04:35;23.00;62.10
39483;DHT22;25682;48.438;1.482;2023-05-07T12:07:01;23.00;62.10
39483;DHT22;25682;48.438;1.482;2023-05-07T12:09:26;23.00;62.10
39483;DHT22;25682;48.438;1.482;2023-05-07T12:11:52;23.00;62.00
39483;DHT22;25682;48.438;1.482;2023-05-07T12:14:18;23.00;62.00
39483;DHT22;25682;48.438;1.482;2023-05-07T12:16:44;23.00;62.00
39483;DHT22;25682;48.438;1.482;2023-05-07T12:19:10;23.10;62.10
39483;DHT22;25682;48.438;1.482;2023-05-07T12:21:38;23.10;62.10
39483;DHT22;25682;48.438;1.482;2023-05-07T12:24:04;23.10;62.00
39483;DHT22;25682;48.438;1.482;2023-05-07T12:26:30;23.10;62.60
39483;DHT22;25682;48.438;1.482;2023-05-07T12:28:56;23.10;62.00
39483;DHT22;25682;48.438;1.482;2023-05-07T12:31:22;23.10;62.00
39483;DHT22;25682;48.438;1.482;2023-05-07T12:33:48;23.10;62.00
39483;DHT22;25682;48.438;1.482;2023-05-07T12:36:13;23.10;62.00
39483;DHT22;25682;48.438;1.482;2023-05-07T12:38:39;23.10;62.00
39483;DHT22;25682;48.438;1.482;2023-05-07T12:41:06;23.10;61.90
39483;DHT22;25682;48.438;1.482;2023-05-07T12:43:32;23.20;62.00
39483;DHT22;25682;48.438;1.482;2023-05-07T12:45:59;23.20;61.90
39483;DHT22;25682;48.438;1.482;2023-05-07T12:48:26;23.20;61.90
39483;DHT22;25682;48.438;1.482;2023-05-07T12:50:55;23.20;61.90
39483;DHT22;25682;48.438;1.482;2023-05-07T12:53:22;23.20;61.90
39483;DHT22;25682;48.438;1.482;2023-05-07T12:55:48;23.20;61.80
39483;DHT22;25682;48.438;1.482;2023-05-07T12:58:15;23.20;61.80
39483;DHT22;25682;48.438;1.482;2023-05-07T13:00:41;23.20;61.80
39483;DHT22;25682;48.438;1.482;2023-05-07T13:03:08;23.20;61.80
39483;DHT22;25682;48.438;1.482;2023-05-07T13:05:34;23.20;61.80
39483;DHT22;25682;48.438;1.482;2023-05-07T13:08:00;23.20;61.80
39483;DHT22;25682;48.438;1.482;2023-05-07T13:10:26;23.20;61.80
39483;DHT22;25682;48.438;1.482;2023-05-07T13:12:52;23.20;61.70
39483;DHT22;25682;48.438;1.482;2023-05-07T13:15:17;23.20;61.70
39483;DHT22;25682;48.438;1.482;2023-05-07T13:17:43;23.20;61.70
39483;DHT22;25682;48.438;1.482;2023-05-07T13:20:09;23.20;61.70
39483;DHT22;25682;48.438;1.482;2023-05-07T13:22:35;23.20;61.80
39483;DHT22;25682;48.438;1.482;2023-05-07T13:25:00;23.20;62.40
39483;DHT22;25682;48.438;1.482;2023-05-07T13:27:26;23.20;61.80
39483;DHT22;25682;48.438;1.482;2023-05-07T13:29:51;23.20;61.80
39483;DHT22;25682;48.438;1.482;2023-05-07T13:32:17;23.20;62.40
39483;DHT22;25682;48.438;1.482;2023-05-07T13:34:42;23.20;61.80
39483;DHT22;25682;48.438;1.482;2023-05-07T13:37:08;23.20;61.90
39483;DHT22;25682;48.438;1.482;2023-05-07T13:39:33;23.20;61.80
39483;DHT22;25682;48.438;1.482;2023-05-07T13:41:59;23.20;61.80
39483;DHT22;25682;48.438;1.482;2023-05-07T13:44:25;23.20;61.90
39483;DHT22;25682;48.438;1.482;2023-05-07T13:46:51;23.30;62.00
39483;DHT22;25682;48.438;1.482;2023-05-07T13:49:16;23.30;62.00
39483;DHT22;25682;48.438;1.482;2023-05-07T13:51:42;23.30;62.00
39483;DHT22;25682;48.438;1.482;2023-05-07T13:54:07;23.30;62.00
39483;DHT22;25682;48.438;1.482;2023-05-07T13:56:33;23.30;62.10
39483;DHT22;25682;48.438;1.482;2023-05-07T13:58:59;23.30;62.10
39483;DHT22;25682;48.438;1.482;2023-05-07T14:01:24;23.30;62.10
39483;DHT22;25682;48.438;1.482;2023-05-07T14:03:50;23.30;62.10
39483;DHT22;25682;48.438;1.482;2023-05-07T14:06:15;23.30;62.10
39483;DHT22;25682;48.438;1.482;2023-05-07T14:08:41;23.30;62.10
39483;DHT22;25682;48.438;1.482;2023-05-07T14:11:06;23.30;62.20
39483;DHT22;25682;48.438;1.482;2023-05-07T14:13:32;23.30;62.20
39483;DHT22;25682;48.438;1.482;2023-05-07T14:15:59;23.30;62.30
39483;DHT22;25682;48.438;1.482;2023-05-07T14:18:25;23.30;62.30
39483;DHT22;25682;48.438;1.482;2023-05-07T14:20:51;23.40;62.40
39483;DHT22;25682;48.438;1.482;2023-05-07T14:23:17;23.30;62.40
39483;DHT22;25682;48.438;1.482;2023-05-07T14:25:47;23.30;62.50
39483;DHT22;25682;48.438;1.482;2023-05-07T14:28:13;23.20;62.70
39483;DHT22;25682;48.438;1.482;2023-05-07T14:30:38;23.20;62.90
39483;DHT22;25682;48.438;1.482;2023-05-07T14:33:03;23.20;62.80
39483;DHT22;25682;48.438;1.482;2023-05-07T14:35:29;23.20;62.80
39483;DHT22;25682;48.438;1.482;2023-05-07T14:37:54;23.20;62.90
39483;DHT22;25682;48.438;1.482;2023-05-07T14:40:20;23.20;62.80
39483;DHT22;25682;48.438;1.482;2023-05-07T14:42:46;23.20;62.80
39483;DHT22;25682;48.438;1.482;2023-05-07T14:45:11;23.20;62.90
39483;DHT22;25682;48.438;1.482;2023-05-07T14:47:37;23.20;62.90
39483;DHT22;25682;48.438;1.482;2023-05-07T14:50:02;23.20;63.00
39483;DHT22;25682;48.438;1.482;2023-05-07T14:52:28;23.20;63.00
39483;DHT22;25682;48.438;1.482;2023-05-07T14:54:53;23.20;63.00
39483;DHT22;25682;48.438;1.482;2023-05-07T14:57:19;23.30;63.10
39483;DHT22;25682;48.438;1.482;2023-05-07T14:59:44;23.20;63.10
39483;DHT22;25682;48.438;1.482;2023-05-07T15:02:11;23.30;63.20
39483;DHT22;25682;48.438;1.482;2023-05-07T15:04:36;23.20;63.20
39483;DHT22;25682;48.438;1.482;2023-05-07T15:07:03;23.20;63.20
39483;DHT22;25682;48.438;1.482;2023-05-07T15:09:29;23.20;63.20
39483;DHT22;25682;48.438;1.482;2023-05-07T15:11:54;23.20;63.20
39483;DHT22;25682;48.438;1.482;2023-05-07T15:14:20;23.20;63.20
39483;DHT22;25682;48.438;1.482;2023-05-07T15:16:47;23.20;63.20
39483;DHT22;25682;48.438;1.482;2023-05-07T15:19:13;23.20;63.10
39483;DHT22;25682;48.438;1.482;2023-05-07T15:21:40;23.20;63.10
39483;DHT22;25682;48.438;1.482;2023-05-07T15:24:05;23.20;63.10
39483;DHT22;25682;48.438;1.482;2023-05-07T15:26:31;23.30;63.10
39483;DHT22;25682;48.438;1.482;2023-05-07T15:28:56;23.20;63.00
39483;DHT22;25682;48.438;1.482;2023-05-07T15:31:23;23.20;63.00
39483;DHT22;25682;48.438;1.482;2023-05-07T15:33:48;23.20;63.00
39483;DHT22;25682;48.438;1.482;2023-05-07T15:36:14;23.20;63.00
39483;DHT22;25682;48.438;1.482;2023-05-07T15:38:39;23.20;63.00
39483;DHT22;25682;48.438;1.482;2023-05-07T15:41:05;23.30;63.00
39483;DHT22;25682;48.438;1.482;2023-05-07T15:43:31;23.20;63.00
39483;DHT22;25682;48.438;1.482;2023-05-07T15:45:56;23.20;63.00
39483;DHT22;25682;48.438;1.482;2023-05-07T15:48:22;23.20;63.00
39483;DHT22;25682;48.438;1.482;2023-05-07T15:50:47;23.20;63.00
39483;DHT22;25682;48.438;1.482;2023-05-07T15:53:13;23.20;63.00
39483;DHT22;25682;48.438;1.482;2023-05-07T15:55:39;23.20;62.90
39483;DHT22;25682;48.438;1.482;2023-05-07T15:58:05;23.20;62.90
39483;DHT22;25682;48.438;1.482;2023-05-07T16:00:31;23.20;62.90
39483;DHT22;25682;48.438;1.482;2023-05-07T16:02:56;23.30;62.90
39483;DHT22;25682;48.438;1.482;2023-05-07T16:05:22;23.20;62.90
39483;DHT22;25682;48.438;1.482;2023-05-07T16:07:48;23.20;62.90
39483;DHT22;25682;48.438;1.482;2023-05-07T16:10:13;23.20;62.90
39483;DHT22;25682;48.438;1.482;2023-05-07T16:12:39;23.30;62.90
39483;DHT22;25682;48.438;1.482;2023-05-07T16:15:04;23.20;62.80
39483;DHT22;25682;48.438;1.482;2023-05-07T16:17:30;23.20;62.80
39483;DHT22;25682;48.438;1.482;2023-05-07T16:19:55;23.20;62.80
39483;DHT22;25682;48.438;1.482;2023-05-07T16:22:23;23.20;62.80
39483;DHT22;25682;48.438;1.482;2023-05-07T17:03:44;23.20;62.80
39483;DHT22;25682;48.438;1.482;2023-05-07T17:06:09;23.30;62.80
39483;DHT22;25682;48.438;1.482;2023-05-07T17:08:39;23.30;62.40
39483;DHT22;25682;48.438;1.482;2023-05-07T17:11:05;23.30;62.40
39483;DHT22;25682;48.438;1.482;2023-05-07T17:13:30;23.30;62.50
39483;DHT22;25682;48.438;1.482;2023-05-07T17:15:56;23.30;62.50
39483;DHT22;25682;48.438;1.482;2023-05-07T17:18:21;23.30;62.70
39483;DHT22;25682;48.438;1.482;2023-05-07T17:20:47;23.30;62.50
39483;DHT22;25682;48.438;1.482;2023-05-07T17:23:12;23.20;62.30
39483;DHT22;25682;48.438;1.482;2023-05-07T17:25:39;23.20;62.20
39483;DHT22;25682;48.438;1.482;2023-05-07T17:28:10;23.20;62.00
39483;DHT22;25682;48.438;1.482;2023-05-07T17:30:35;23.20;61.90
39483;DHT22;25682;48.438;1.482;2023-05-07T17:33:01;23.20;61.70
39483;DHT22;25682;48.438;1.482;2023-05-07T17:35:26;23.30;61.80
39483;DHT22;25682;48.438;1.482;2023-05-07T17:37:52;23.20;61.70
39483;DHT22;25682;48.438;1.482;2023-05-07T17:40:19;23.20;61.80
39483;DHT22;25682;48.438;1.482;2023-05-07T17:42:45;23.20;61.90
39483;DHT22;25682;48.438;1.482;2023-05-07T17:45:10;23.20;62.10
39483;DHT22;25682;48.438;1.482;2023-05-07T17:47:36;23.20;62.20
39483;DHT22;25682;48.438;1.482;2023-05-07T17:50:02;23.20;62.30
39483;DHT22;25682;48.438;1.482;2023-05-07T17:52:30;23.20;62.30
39483;DHT22;25682;48.438;1.482;2023-05-07T17:54:55;23.20;62.30
39483;DHT22;25682;48.438;1.482;2023-05-07T17:57:21;23.20;62.20
39483;DHT22;25682;48.438;1.482;2023-05-07T17:59:46;23.20;62.20
39483;DHT22;25682;48.438;1.482;2023-05-07T18:02:12;23.20;62.20
39483;DHT22;25682;48.438;1.482;2023-05-07T18:09:29;23.30;62.00
39483;DHT22;25682;48.438;1.482;2023-05-07T18:11:55;23.20;63.10
39483;DHT22;25682;48.438;1.482;2023-05-07T18:14:20;23.20;63.10
39483;DHT22;25682;48.438;1.482;2023-05-07T18:16:50;23.20;62.60
39483;DHT22;25682;48.438;1.482;2023-05-07T18:19:15;23.20;62.70
39483;DHT22;25682;48.438;1.482;2023-05-07T18:21:41;23.20;62.80
39483;DHT22;25682;48.438;1.482;2023-05-07T18:24:06;23.20;62.90
39483;DHT22;25682;48.438;1.482;2023-05-07T18:26:32;23.20;63.00
39483;DHT22;25682;48.438;1.482;2023-05-07T18:28:58;23.30;63.20
39483;DHT22;25682;48.438;1.482;2023-05-07T18:31:23;23.30;63.30
39483;DHT22;25682;48.438;1.482;2023-05-07T18:33:52;23.30;63.40
39483;DHT22;25682;48.438;1.482;2023-05-07T18:36:18;23.20;63.40
39483;DHT22;25682;48.438;1.482;2023-05-07T18:38:44;23.30;63.50
39483;DHT22;25682;48.438;1.482;2023-05-07T18:41:09;23.30;63.60
39483;DHT22;25682;48.438;1.482;2023-05-07T18:43:35;23.20;63.70
39483;DHT22;25682;48.438;1.482;2023-05-07T18:46:00;23.30;63.80
39483;DHT22;25682;48.438;1.482;2023-05-07T18:48:26;23.20;63.80
39483;DHT22;25682;48.438;1.482;2023-05-07T18:50:51;23.30;63.90
39483;DHT22;25682;48.438;1.482;2023-05-07T18:53:17;23.20;63.90
39483;DHT22;25682;48.438;1.482;2023-05-07T18:55:42;23.30;64.00
39483;DHT22;25682;48.438;1.482;2023-05-07T18:58:10;23.30;64.00
39483;DHT22;25682;48.438;1.482;2023-05-07T19:00:36;23.30;64.10
39483;DHT22;25682;48.438;1.482;2023-05-07T19:03:01;23.20;64.10
39483;DHT22;25682;48.438;1.482;2023-05-07T19:05:27;23.20;64.10
39483;DHT22;25682;48.438;1.482;2023-05-07T19:07:52;23.20;64.20
39483;DHT22;25682;48.438;1.482;2023-05-07T19:10:18;23.30;64.20
39483;DHT22;25682;48.438;1.482;2023-05-07T19:12:43;23.30;64.20
39483;DHT22;25682;48.438;1.482;2023-05-07T19:15:09;23.30;64.20
39483;DHT22;25682;48.438;1.482;2023-05-07T19:17:34;23.20;64.10
39483;DHT22;25682;48.438;1.482;2023-05-07T19:20:00;23.30;64.10
39483;DHT22;25682;48.438;1.482;2023-05-07T19:22:26;23.30;64.10
39483;DHT22;25682;48.438;1.482;2023-05-07T19:24:51;23.20;64.00
39483;DHT22;25682;48.438;1.482;2023-05-07T19:27:17;23.20;64.10
39483;DHT22;25682;48.438;1.482;2023-05-07T19:29:43;23.20;64.10
39483;DHT22;25682;48.438;1.482;2023-05-07T19:32:08;23.20;64.10
39483;DHT22;25682;48.438;1.482;2023-05-07T19:34:34;23.20;64.10
39483;DHT22;25682;48.438;1.482;2023-05-07T19:37:00;23.20;64.10
39483;DHT22;25682;48.438;1.482;2023-05-07T19:39:25;23.20;64.00
39483;DHT22;25682;48.438;1.482;2023-05-07T19:41:51;23.20;64.00
39483;DHT22;25682;48.438;1.482;2023-05-07T19:44:16;23.20;63.90
39483;DHT22;25682;48.438;1.482;2023-05-07T19:46:42;23.20;63.80
39483;DHT22;25682;48.438;1.482;2023-05-07T19:49:09;23.20;63.70
39483;DHT22;25682;48.438;1.482;2023-05-07T19:51:35;23.20;63.70
39483;DHT22;25682;48.438;1.482;2023-05-07T19:54:00;23.20;63.60
39483;DHT22;25682;48.438;1.482;2023-05-07T19:56:26;23.20;64.20
39483;DHT22;25682;48.438;1.482;2023-05-07T19:58:52;23.20;63.50
39483;DHT22;25682;48.438;1.482;2023-05-07T20:01:17;23.20;63.50
39483;DHT22;25682;48.438;1.482;2023-05-07T20:03:42;23.20;63.50
39483;DHT22;25682;48.438;1.482;2023-05-07T20:06:08;23.10;63.30
39483;DHT22;25682;48.438;1.482;2023-05-07T20:08:34;23.10;63.20
39483;DHT22;25682;48.438;1.482;2023-05-07T20:10:59;23.10;63.10
39483;DHT22;25682;48.438;1.482;2023-05-07T20:13:25;23.10;63.10
39483;DHT22;25682;48.438;1.482;2023-05-07T20:15:55;23.10;63.10
39483;DHT22;25682;48.438;1.482;2023-05-07T20:18:20;23.10;63.10
39483;DHT22;25682;48.438;1.482;2023-05-07T20:20:46;23.10;63.00
39483;DHT22;25682;48.438;1.482;2023-05-07T20:23:12;23.10;63.10
39483;DHT22;25682;48.438;1.482;2023-05-07T20:25:38;23.10;63.00
39483;DHT22;25682;48.438;1.482;2023-05-07T20:28:04;23.10;63.00
39483;DHT22;25682;48.438;1.482;2023-05-07T20:30:30;23.10;62.90
39483;DHT22;25682;48.438;1.482;2023-05-07T20:32:55;23.10;62.90
39483;DHT22;25682;48.438;1.482;2023-05-07T20:35:22;23.10;62.90
39483;DHT22;25682;48.438;1.482;2023-05-07T20:37:47;23.10;62.80
39483;DHT22;25682;48.438;1.482;2023-05-07T20:40:13;23.10;62.80
39483;DHT22;25682;48.438;1.482;2023-05-07T20:42:38;23.10;62.80
39483;DHT22;25682;48.438;1.482;2023-05-07T20:45:04;23.00;62.80
39483;DHT22;25682;48.438;1.482;2023-05-07T20:47:30;23.00;62.80
39483;DHT22;25682;48.438;1.482;2023-05-07T20:49:56;23.00;62.80
39483;DHT22;25682;48.438;1.482;2023-05-07T20:52:22;23.00;62.70
39483;DHT22;25682;48.438;1.482;2023-05-07T20:54:47;23.10;62.70
39483;DHT22;25682;48.438;1.482;2023-05-07T20:57:14;23.00;62.70
39483;DHT22;25682;48.438;1.482;2023-05-07T20:59:40;23.00;62.80
39483;DHT22;25682;48.438;1.482;2023-05-07T21:02:08;23.00;62.80
39483;DHT22;25682;48.438;1.482;2023-05-07T21:04:34;23.00;62.80
39483;DHT22;25682;48.438;1.482;2023-05-07T21:06:59;23.00;62.90
39483;DHT22;25682;48.438;1.482;2023-05-07T21:09:25;22.90;62.80
39483;DHT22;25682;48.438;1.482;2023-05-07T21:11:51;22.90;62.80
39483;DHT22;25682;48.438;1.482;2023-05-07T21:14:17;22.90;62.80
39483;DHT22;25682;48.438;1.482;2023-05-07T21:16:42;23.00;62.80
39483;DHT22;25682;48.438;1.482;2023-05-07T21:19:08;23.00;62.80
39483;DHT22;25682;48.438;1.482;2023-05-07T21:21:34;23.00;62.80
39483;DHT22;25682;48.438;1.482;2023-05-07T21:24:00;22.90;62.90
39483;DHT22;25682;48.438;1.482;2023-05-07T21:26:25;22.90;63.00
39483;DHT22;25682;48.438;1.482;2023-05-07T21:28:51;22.90;63.00
39483;DHT22;25682;48.438;1.482;2023-05-07T21:31:16;22.90;63.10
39483;DHT22;25682;48.438;1.482;2023-05-07T21:33:42;22.90;63.10
39483;DHT22;25682;48.438;1.482;2023-05-07T21:36:08;22.90;63.20
39483;DHT22;25682;48.438;1.482;2023-05-07T21:38:36;22.80;63.20
39483;DHT22;25682;48.438;1.482;2023-05-07T21:41:01;22.90;63.30
39483;DHT22;25682;48.438;1.482;2023-05-07T21:43:27;22.80;63.20
39483;DHT22;25682;48.438;1.482;2023-05-07T21:45:52;22.90;63.20
39483;DHT22;25682;48.438;1.482;2023-05-07T21:48:18;22.90;63.20
39483;DHT22;25682;48.438;1.482;2023-05-07T21:50:46;22.90;63.30
39483;DHT22;25682;48.438;1.482;2023-05-07T21:53:12;22.90;63.30
39483;DHT22;25682;48.438;1.482;2023-05-07T21:55:38;22.80;63.20
39483;DHT22;25682;48.438;1.482;2023-05-07T21:58:03;22.80;63.20
39483;DHT22;25682;48.438;1.482;2023-05-07T22:00:29;22.80;63.20
39483;DHT22;25682;48.438;1.482;2023-05-07T22:02:55;22.80;63.20
39483;DHT22;25682;48.438;1.482;2023-05-07T22:05:21;22.80;63.10
39483;DHT22;25682;48.438;1.482;2023-05-07T22:07:46;22.80;63.00
39483;DHT22;25682;48.438;1.482;2023-05-07T22:10:12;22.80;62.90
39483;DHT22;25682;48.438;1.482;2023-05-07T22:12:37;22.90;62.80
39483;DHT22;25682;48.438;1.482;2023-05-07T22:15:03;22.80;62.60
39483;DHT22;25682;48.438;1.482;2023-05-07T22:17:28;22.90;62.50
39483;DHT22;25682;48.438;1.482;2023-05-07T22:19:54;22.90;62.40
39483;DHT22;25682;48.438;1.482;2023-05-07T22:22:19;22.90;62.30
39483;DHT22;25682;48.438;1.482;2023-05-07T22:24:45;22.90;62.20
39483;DHT22;25682;48.438;1.482;2023-05-07T22:27:10;22.90;62.00
39483;DHT22;25682;48.438;1.482;2023-05-07T22:29:36;22.90;61.90
39483;DHT22;25682;48.438;1.482;2023-05-07T22:32:02;22.90;61.80
39483;DHT22;25682;48.438;1.482;2023-05-07T22:34:27;22.90;61.70
39483;DHT22;25682;48.438;1.482;2023-05-07T22:36:53;22.90;61.70
39483;DHT22;25682;48.438;1.482;2023-05-07T22:39:18;22.90;61.60
39483;DHT22;25682;48.438;1.482;2023-05-07T22:41:44;22.90;61.50
39483;DHT22;25682;48.438;1.482;2023-05-07T22:44:09;22.90;61.40
39483;DHT22;25682;48.438;1.482;2023-05-07T22:46:35;22.90;61.30
39483;DHT22;25682;48.438;1.482;2023-05-07T22:49:01;22.90;61.20
39483;DHT22;25682;48.438;1.482;2023-05-07T22:51:26;22.90;61.20
39483;DHT22;25682;48.438;1.482;2023-05-07T22:53:52;22.90;61.10